Time;durP1;ratioP1;P1;durP2;ratioP2;P2;SDS_P1;SDS_P2;PMS_P1;PMS_P2;Temp;Humidity;BMP_temperature;BMP_pressure;BME280_temperature;BME280_humidity;BME280_pressure;Samples;Min_cycle;Max_cycle;Signal;HPM_P1;HPM_P2
2021/04/10 00:01:33;;;;;;;6.67;3.80;;;12.50;70.50;;;;;;5092461;28;20462;-65
2021/04/10 00:04:00;;;;;;;4.87;3.60;;;12.40;70.60;;;;;;5091457;28;20208;-63
2021/04/10 00:06:26;;;;;;;5.83;3.03;;;12.30;70.80;;;;;;5095349;28;20235;-65
2021/04/10 00:08:53;;;;;;;7.40;4.00;;;12.20;71.20;;;;;;5095087;28;20204;-64
2021/04/10 00:11:20;;;;;;;6.83;3.40;;;12.10;71.50;;;;;;5095302;28;20235;-64
2021/04/10 00:13:46;;;;;;;6.37;3.23;;;12.10;71.30;;;;;;5095537;28;20614;-64
2021/04/10 00:16:12;;;;;;;8.13;3.00;;;12.10;70.90;;;;;;5095702;28;20204;-64
2021/04/10 00:18:38;;;;;;;7.17;3.20;;;12.10;70.30;;;;;;5095444;28;20204;-64
2021/04/10 00:21:05;;;;;;;6.40;2.63;;;12.10;69.50;;;;;;5094973;28;20208;-63
2021/04/10 00:23:31;;;;;;;4.93;2.37;;;12.20;68.70;;;;;;5095027;28;20493;-64
2021/04/10 00:25:57;;;;;;;6.30;2.63;;;12.30;66.70;;;;;;5095335;28;20224;-64
2021/04/10 00:28:24;;;;;;;8.23;2.53;;;12.40;65.60;;;;;;5095041;28;20698;-65
2021/04/10 00:30:50;;;;;;;4.93;1.90;;;12.60;64.40;;;;;;5095058;28;20601;-64
2021/04/10 00:33:17;;;;;;;4.90;1.97;;;12.50;64.10;;;;;;5094845;28;20227;-64
2021/04/10 00:35:43;;;;;;;4.47;1.87;;;12.80;63.70;;;;;;5094849;28;20227;-64
2021/04/10 00:38:09;;;;;;;7.53;2.30;;;12.90;63.30;;;;;;5094732;28;20228;-64
2021/04/10 00:40:35;;;;;;;4.40;1.97;;;13.10;62.40;;;;;;5094741;28;20204;-64
2021/04/10 00:43:02;;;;;;;6.97;2.57;;;13.30;61.80;;;;;;5094466;28;20224;-64
2021/04/10 00:45:29;;;;;;;5.23;2.30;;;13.50;62.00;;;;;;5094543;28;20277;-64
2021/04/10 00:47:55;;;;;;;4.97;2.20;;;13.60;61.00;;;;;;5094650;28;20209;-65
2021/04/10 00:50:21;;;;;;;4.07;2.07;;;13.60;60.80;;;;;;5095165;28;20234;-64
2021/04/10 00:52:48;;;;;;;4.23;2.00;;;13.70;60.50;;;;;;5094403;28;20604;-65
2021/04/10 00:55:14;;;;;;;5.70;2.00;;;13.80;60.20;;;;;;5094200;28;20200;-64
2021/04/10 00:57:40;;;;;;;4.83;2.20;;;13.90;60.00;;;;;;5094251;28;20667;-64
2021/04/10 01:00:08;;;;;;;6.93;2.20;;;14.00;59.90;;;;;;5094241;28;20813;-64
2021/04/10 01:02:35;;;;;;;3.93;1.90;;;14.10;59.80;;;;;;5094109;28;20235;-65
2021/04/10 01:05:03;;;;;;;6.07;2.00;;;14.20;59.70;;;;;;5094102;28;20235;-64
2021/04/10 01:07:29;;;;;;;3.77;1.97;;;14.20;59.50;;;;;;5093995;28;20566;-64
2021/04/10 01:09:56;;;;;;;3.73;2.00;;;14.20;59.50;;;;;;5093632;28;20208;-64
2021/04/10 01:12:33;;;;;;;4.67;1.67;;;14.30;59.50;;;;;;5093784;28;20236;-64
2021/04/10 01:15:07;;;;;;;10.80;6.20;;;14.40;59.50;;;;;;5093944;28;20254;-64
2021/04/10 01:17:41;;;;;;;6.03;2.27;;;14.40;59.40;;;;;;5093308;28;20216;-64
2021/04/10 01:20:35;;;;;;;4.63;1.93;;;14.40;59.30;;;;;;5094076;28;20208;-64
2021/04/10 01:23:30;;;;;;;6.57;2.20;;;14.40;59.40;;;;;;5058635;28;20634;-64
2021/04/10 01:26:10;;;;;;;3.70;1.73;;;14.50;58.90;;;;;;5093987;28;20224;-64
2021/04/10 01:28:58;;;;;;;4.83;2.00;;;14.40;59.20;;;;;;5093998;28;20193;-64
2021/04/10 01:31:29;;;;;;;5.93;2.20;;;14.40;59.10;;;;;;5087561;28;20228;-64
2021/04/10 01:34:00;;;;;;;2.53;1.53;;;14.40;59.00;;;;;;5093512;28;20575;-64
2021/04/10 01:36:31;;;;;;;5.73;1.90;;;14.50;58.90;;;;;;5093734;28;20584;-64
2021/04/10 01:38:58;;;;;;;10.33;2.70;;;14.50;58.90;;;;;;5094192;28;20663;-65
2021/04/10 01:41:25;;;;;;;5.23;1.87;;;14.50;58.80;;;;;;5093278;28;20229;-63
2021/04/10 01:43:53;;;;;;;3.87;1.90;;;14.50;59.10;;;;;;5093834;28;20265;-63
2021/04/10 01:46:24;;;;;;;6.90;2.20;;;14.40;58.80;;;;;;5094397;28;20224;-64
2021/04/10 01:48:52;;;;;;;4.33;1.73;;;14.40;58.70;;;;;;5094431;28;20233;-64
2021/04/10 01:51:19;;;;;;;4.23;1.73;;;14.30;59.00;;;;;;5093487;28;20232;-64
2021/04/10 01:53:47;;;;;;;7.93;1.93;;;14.30;59.40;;;;;;5092926;28;20212;-64
2021/04/10 01:56:14;;;;;;;4.63;1.80;;;14.40;59.60;;;;;;5093406;28;20211;-64
2021/04/10 01:58:43;;;;;;;5.83;1.90;;;14.20;59.30;;;;;;5093110;28;20237;-64
2021/04/10 02:01:12;;;;;;;3.17;1.53;;;14.30;59.20;;;;;;5092892;28;20295;-64
2021/04/10 02:03:43;;;;;;;2.07;1.60;;;14.30;59.40;;;;;;5093032;28;20200;-63
2021/04/10 02:06:09;;;;;;;4.80;2.20;;;14.30;59.30;;;;;;5092764;28;20220;-64
2021/04/10 02:08:36;;;;;;;2.77;1.33;;;14.20;59.40;;;;;;5092719;28;20672;-63
2021/04/10 02:11:03;;;;;;;4.43;1.60;;;14.00;59.40;;;;;;5092863;28;20233;-64
2021/04/10 02:13:30;;;;;;;7.33;1.70;;;14.00;59.90;;;;;;5092890;28;20241;-63
2021/04/10 02:15:57;;;;;;;6.13;1.60;;;14.00;60.10;;;;;;5093022;28;20208;-64
2021/04/10 02:18:23;;;;;;;2.40;1.47;;;14.00;60.10;;;;;;5092633;28;20204;-64
2021/04/10 02:20:53;;;;;;;5.23;1.60;;;14.00;60.20;;;;;;5092598;28;20204;-64
2021/04/10 02:23:20;;;;;;;3.73;1.63;;;14.00;60.40;;;;;;5092648;28;20310;-65
2021/04/10 02:25:46;;;;;;;3.77;1.70;;;14.10;60.20;;;;;;5092438;28;20655;-65
2021/04/10 02:28:12;;;;;;;8.60;1.70;;;14.00;60.20;;;;;;5091571;28;20610;-65
2021/04/10 02:30:39;;;;;;;2.93;1.60;;;13.90;60.70;;;;;;5093121;28;20204;-65
2021/04/10 02:33:11;;;;;;;4.80;1.70;;;13.90;60.70;;;;;;5092193;28;20781;-65
2021/04/10 02:35:41;;;;;;;3.57;1.40;;;14.00;60.80;;;;;;5091937;28;20208;-65
2021/04/10 02:38:09;;;;;;;3.83;1.80;;;14.00;61.10;;;;;;5092508;28;20204;-65
2021/04/10 02:40:38;;;;;;;3.43;1.60;;;14.10;61.40;;;;;;5092031;28;20673;-64
2021/04/10 02:43:08;;;;;;;4.50;1.80;;;14.00;61.30;;;;;;5092250;28;20228;-64
2021/04/10 02:45:35;;;;;;;5.03;1.63;;;14.10;61.20;;;;;;5092013;28;20227;-67
2021/04/10 02:48:07;;;;;;;2.73;1.60;;;14.10;61.10;;;;;;5092143;28;20211;-65
2021/04/10 02:50:34;;;;;;;5.50;1.80;;;14.20;61.10;;;;;;5092397;28;20204;-65
2021/04/10 02:53:05;;;;;;;4.03;1.57;;;14.10;61.20;;;;;;5091884;28;20718;-65
2021/04/10 02:55:34;;;;;;;4.07;1.33;;;14.20;63.50;;;;;;5092038;28;20625;-65
2021/04/10 02:58:02;;;;;;;2.37;1.27;;;14.20;64.10;;;;;;5091688;28;20208;-66
2021/04/10 03:00:29;;;;;;;2.90;1.67;;;14.10;64.10;;;;;;5091760;28;20215;-67
2021/04/10 03:02:57;;;;;;;4.20;1.67;;;14.20;63.50;;;;;;5106002;22;20787;-60
2021/04/10 03:05:23;;;;;;;5.57;1.90;;;14.10;62.80;;;;;;5091337;28;20595;-60
2021/04/10 03:07:52;;;;;;;2.30;1.47;;;14.10;62.40;;;;;;5091273;28;20204;-60
2021/04/10 03:10:19;;;;;;;3.40;1.40;;;14.20;62.50;;;;;;5091338;28;20204;-60
2021/04/10 03:12:47;;;;;;;6.73;1.77;;;14.10;64.10;;;;;;5091218;28;20228;-60
2021/04/10 03:15:15;;;;;;;1.97;1.20;;;14.00;64.60;;;;;;5091182;28;20208;-60
2021/04/10 03:17:42;;;;;;;4.07;1.60;;;14.10;64.50;;;;;;5091118;28;20743;-60
2021/04/10 03:20:12;;;;;;;3.47;1.50;;;14.00;63.90;;;;;;5091286;28;20208;-60
2021/04/10 03:22:41;;;;;;;3.17;1.70;;;14.00;63.10;;;;;;5091171;28;20514;-60
2021/04/10 03:25:08;;;;;;;3.80;1.57;;;14.10;63.00;;;;;;5090878;28;20567;-59
2021/04/10 03:27:35;;;;;;;5.60;1.73;;;14.10;62.80;;;;;;5091286;28;20300;-60
2021/04/10 03:30:03;;;;;;;4.50;1.77;;;14.10;62.40;;;;;;5091373;28;20594;-60
2021/04/10 03:32:31;;;;;;;4.97;1.33;;;14.20;62.20;;;;;;5091083;28;20220;-58
2021/04/10 03:34:58;;;;;;;3.90;1.43;;;14.10;62.30;;;;;;5090979;28;20232;-59
2021/04/10 03:37:25;;;;;;;4.73;1.67;;;14.10;62.90;;;;;;5091438;28;20231;-59
2021/04/10 03:39:51;;;;;;;6.70;1.90;;;14.20;63.10;;;;;;5090430;28;20633;-59
2021/04/10 03:42:23;;;;;;;3.37;1.30;;;14.20;63.40;;;;;;5090752;28;20228;-61
2021/04/10 03:44:49;;;;;;;3.03;1.50;;;14.30;63.40;;;;;;5090939;28;20218;-58
2021/04/10 03:47:16;;;;;;;5.07;1.60;;;14.20;63.30;;;;;;5091102;28;20208;-60
2021/04/10 03:49:42;;;;;;;5.07;1.60;;;14.20;63.10;;;;;;5090992;28;20211;-59
2021/04/10 03:52:09;;;;;;;3.27;1.40;;;14.30;63.60;;;;;;5091181;28;20224;-59
2021/04/10 03:54:35;;;;;;;4.23;1.50;;;14.10;63.90;;;;;;5090747;28;20200;-58
2021/04/10 03:57:01;;;;;;;3.77;1.40;;;14.10;64.80;;;;;;5090899;28;20644;-59
2021/04/10 03:59:28;;;;;;;2.97;1.53;;;14.20;66.90;;;;;;5090871;28;20215;-59
2021/04/10 04:01:54;;;;;;;4.57;1.70;;;14.10;69.20;;;;;;5090677;28;20239;-59
2021/04/10 04:04:21;;;;;;;3.47;1.57;;;14.20;71.10;;;;;;5090885;28;20207;-59
2021/04/10 04:06:47;;;;;;;4.83;1.50;;;14.20;71.60;;;;;;5090691;28;20232;-59
2021/04/10 04:09:13;;;;;;;6.50;1.60;;;14.00;71.00;;;;;;5090758;28;20208;-60
2021/04/10 04:11:39;;;;;;;3.97;1.73;;;14.00;71.70;;;;;;5090823;28;20232;-60
2021/04/10 04:14:06;;;;;;;3.83;1.50;;;14.00;72.20;;;;;;5090573;28;20265;-60
2021/04/10 04:16:32;;;;;;;3.13;1.53;;;14.00;71.70;;;;;;5090690;28;20258;-60
2021/04/10 04:18:58;;;;;;;3.47;1.60;;;14.00;71.80;;;;;;5090486;28;20204;-61
2021/04/10 04:21:25;;;;;;;6.23;1.90;;;14.10;72.40;;;;;;5090692;28;20201;-60
2021/04/10 04:23:51;;;;;;;2.93;1.47;;;14.00;72.30;;;;;;5090271;28;20204;-60
2021/04/10 04:26:17;;;;;;;4.37;1.57;;;14.10;72.40;;;;;;5090717;28;20334;-59
2021/04/10 04:28:43;;;;;;;3.23;1.63;;;14.00;73.40;;;;;;5090574;28;20204;-59
2021/04/10 04:31:10;;;;;;;3.60;1.20;;;14.00;73.70;;;;;;5090585;28;20586;-59
2021/04/10 04:33:36;;;;;;;5.13;1.90;;;14.00;73.00;;;;;;5090567;28;20232;-60
2021/04/10 04:36:02;;;;;;;4.30;2.17;;;14.00;73.00;;;;;;5090521;28;20204;-60
2021/04/10 04:38:29;;;;;;;3.13;1.40;;;14.10;73.10;;;;;;5090176;28;20208;-60
2021/04/10 04:40:55;;;;;;;2.60;1.30;;;13.90;72.90;;;;;;5090666;28;20212;-60
2021/04/10 04:43:21;;;;;;;2.43;1.33;;;13.90;73.60;;;;;;5090463;28;20228;-60
2021/04/10 04:45:48;;;;;;;4.83;1.60;;;13.90;73.40;;;;;;5090345;28;20220;-59
2021/04/10 04:48:14;;;;;;;2.33;1.30;;;13.80;73.60;;;;;;5090155;28;20204;-60
2021/04/10 04:50:40;;;;;;;2.57;1.40;;;13.80;73.70;;;;;;5090445;28;20211;-59
2021/04/10 04:53:06;;;;;;;4.03;2.17;;;13.80;74.50;;;;;;5093303;28;20240;-59
2021/04/10 04:55:33;;;;;;;2.93;1.30;;;13.90;74.70;;;;;;5094199;28;20201;-59
2021/04/10 04:57:59;;;;;;;2.87;1.53;;;13.90;76.30;;;;;;5094043;28;20204;-59
2021/04/10 05:00:26;;;;;;;2.43;1.60;;;13.90;76.90;;;;;;5094046;28;20586;-59
2021/04/10 05:02:53;;;;;;;2.73;1.50;;;13.80;77.80;;;;;;5093866;28;20638;-59
2021/04/10 05:05:19;;;;;;;4.03;1.43;;;13.80;78.10;;;;;;5093441;28;20235;-59
2021/04/10 05:07:45;;;;;;;2.40;1.60;;;13.80;78.50;;;;;;5093408;28;20208;-59
2021/04/10 05:10:12;;;;;;;3.40;1.27;;;13.80;78.80;;;;;;5093841;28;20259;-59
2021/04/10 05:12:39;;;;;;;5.83;1.30;;;13.90;78.90;;;;;;5093541;28;20323;-59
2021/04/10 05:15:06;;;;;;;5.03;1.90;;;13.90;78.80;;;;;;5093641;28;20200;-59
2021/04/10 05:17:33;;;;;;;5.00;1.30;;;13.90;79.90;;;;;;5093510;28;20208;-59
2021/04/10 05:19:59;;;;;;;2.90;1.23;;;13.90;78.90;;;;;;5093276;28;20215;-59
2021/04/10 05:22:25;;;;;;;5.03;1.47;;;13.90;78.90;;;;;;5093495;28;20251;-59
2021/04/10 05:24:51;;;;;;;2.43;1.33;;;13.90;79.40;;;;;;5093593;28;20431;-59
2021/04/10 05:27:18;;;;;;;3.53;2.07;;;13.90;79.10;;;;;;5093523;28;20228;-60
2021/04/10 05:29:45;;;;;;;2.63;1.30;;;13.80;79.50;;;;;;5093120;28;20208;-59
2021/04/10 05:32:11;;;;;;;3.40;1.50;;;13.70;79.40;;;;;;5093241;28;20269;-60
2021/04/10 05:34:37;;;;;;;5.60;1.60;;;13.70;79.60;;;;;;5092935;28;20585;-58
2021/04/10 05:37:03;;;;;;;4.83;1.63;;;13.60;80.00;;;;;;5092926;28;20730;-59
2021/04/10 05:39:30;;;;;;;2.70;1.30;;;13.40;81.30;;;;;;5093073;28;20204;-59
2021/04/10 05:41:56;;;;;;;5.17;1.50;;;13.30;82.80;;;;;;5093140;28;20232;-58
2021/04/10 05:44:22;;;;;;;4.97;1.40;;;13.20;83.60;;;;;;5093278;28;20211;-58
2021/04/10 05:46:49;;;;;;;2.63;1.37;;;12.90;84.30;;;;;;5092933;28;20220;-58
2021/04/10 05:49:15;;;;;;;5.10;1.53;;;12.90;84.40;;;;;;5093173;28;20212;-59
2021/04/10 05:51:41;;;;;;;3.33;1.23;;;12.90;84.70;;;;;;5092821;28;20247;-59
2021/04/10 05:54:08;;;;;;;4.33;1.50;;;12.80;84.50;;;;;;5092867;28;20208;-59
2021/04/10 05:56:34;;;;;;;5.30;1.50;;;12.90;84.40;;;;;;5093065;28;20207;-59
2021/04/10 05:59:01;;;;;;;3.20;1.30;;;12.80;84.30;;;;;;5092690;28;20209;-58
2021/04/10 06:01:27;;;;;;;2.23;1.20;;;12.90;84.10;;;;;;5092614;28;20204;-58
2021/04/10 06:03:55;;;;;;;1.50;1.00;;;13.00;84.80;;;;;;5092212;28;20208;-58
2021/04/10 06:06:22;;;;;;;2.43;1.23;;;12.80;84.50;;;;;;5092440;28;20595;-59
2021/04/10 06:08:48;;;;;;;1.93;1.20;;;12.90;84.40;;;;;;5092567;28;20249;-61
2021/04/10 06:11:14;;;;;;;2.77;1.80;;;13.00;84.10;;;;;;5092590;28;20744;-60
2021/04/10 06:13:40;;;;;;;3.30;1.33;;;13.10;83.90;;;;;;5092315;28;20228;-60
2021/04/10 06:16:08;;;;;;;5.93;1.87;;;13.10;84.40;;;;;;5092771;28;20851;-60
2021/04/10 06:18:34;;;;;;;2.83;1.47;;;13.30;84.90;;;;;;5092839;28;20205;-60
2021/04/10 06:21:01;;;;;;;5.67;1.37;;;13.30;85.10;;;;;;5092915;28;20218;-60
2021/04/10 06:23:28;;;;;;;1.80;1.30;;;13.40;84.60;;;;;;5092207;28;20621;-60
2021/04/10 06:25:54;;;;;;;2.43;1.47;;;13.30;83.90;;;;;;5092230;28;20714;-61
2021/04/10 06:28:20;;;;;;;2.20;1.27;;;13.20;83.60;;;;;;5092157;28;20254;-60
2021/04/10 06:30:46;;;;;;;3.23;1.33;;;13.20;83.90;;;;;;5092138;28;20212;-60
2021/04/10 06:33:13;;;;;;;4.20;1.67;;;13.20;84.10;;;;;;5092380;28;20224;-60
2021/04/10 06:35:39;;;;;;;3.27;1.50;;;13.30;83.40;;;;;;5092211;28;20664;-60
2021/04/10 06:38:06;;;;;;;5.43;1.87;;;13.30;82.40;;;;;;5091976;28;20200;-59
2021/04/10 06:40:33;;;;;;;2.10;1.10;;;13.30;82.00;;;;;;5091972;28;20219;-60
2021/04/10 06:43:02;;;;;;;3.13;1.40;;;13.50;81.80;;;;;;5091775;28;20639;-59
2021/04/10 06:45:29;;;;;;;3.60;1.53;;;13.40;81.90;;;;;;5091596;28;20281;-59
2021/04/10 06:47:56;;;;;;;4.93;1.87;;;13.30;81.80;;;;;;5092008;28;20231;-59
2021/04/10 06:50:22;;;;;;;2.83;1.37;;;13.20;81.50;;;;;;5092023;28;20273;-58
2021/04/10 06:52:51;;;;;;;2.67;1.40;;;13.20;81.60;;;;;;5091799;28;20224;-59
2021/04/10 06:55:20;;;;;;;3.00;1.23;;;13.20;82.40;;;;;;5091666;28;20208;-58
2021/04/10 06:57:55;;;;;;;3.57;1.47;;;13.30;81.50;;;;;;5091674;28;20212;-58
2021/04/10 07:00:22;;;;;;;2.20;1.37;;;13.30;82.00;;;;;;5092323;28;20204;-58
2021/04/10 07:02:49;;;;;;;5.97;1.50;;;13.20;81.80;;;;;;5092160;28;20240;-58
2021/04/10 07:05:16;;;;;;;3.67;1.20;;;13.20;82.00;;;;;;5091679;28;20207;-60
2021/04/10 07:07:43;;;;;;;3.47;1.57;;;13.30;81.70;;;;;;5091550;28;20209;-60
2021/04/10 07:10:11;;;;;;;4.37;1.33;;;13.40;81.80;;;;;;5091338;28;20296;-59
2021/04/10 07:12:38;;;;;;;3.30;1.30;;;13.40;81.70;;;;;;5091304;28;20224;-59
2021/04/10 07:15:06;;;;;;;7.07;2.10;;;13.40;81.30;;;;;;5090890;28;20785;-58
2021/04/10 07:17:32;;;;;;;4.47;1.37;;;13.40;81.60;;;;;;5091494;28;20668;-58
2021/04/10 07:19:58;;;;;;;2.97;1.13;;;13.40;81.40;;;;;;5091182;28;20212;-59
2021/04/10 07:22:24;;;;;;;2.40;1.30;;;13.50;81.40;;;;;;5091091;28;20707;-58
2021/04/10 07:24:52;;;;;;;1.70;1.03;;;13.50;81.20;;;;;;5091248;28;20208;-59
2021/04/10 07:27:20;;;;;;;2.90;1.33;;;13.60;81.50;;;;;;5090863;28;20254;-59
2021/04/10 07:29:48;;;;;;;4.17;2.47;;;13.70;82.30;;;;;;5091135;28;20216;-59
2021/04/10 07:32:32;;;;;;;2.60;1.40;;;13.90;82.10;;;;;;5091142;28;20301;-59
2021/04/10 07:34:59;;;;;;;4.53;1.30;;;13.90;82.00;;;;;;5090995;28;20290;-58
2021/04/10 07:37:37;;;;;;;3.10;1.70;;;14.00;82.10;;;;;;5091035;28;20203;-59
2021/04/10 07:40:05;;;;;;;4.30;1.53;;;14.10;81.50;;;;;;5091397;28;20232;-60
2021/04/10 07:42:36;;;;;;;2.43;1.40;;;14.00;81.50;;;;;;5091086;28;20711;-60
2021/04/10 07:45:04;;;;;;;2.73;1.27;;;13.80;82.70;;;;;;5090968;28;20215;-59
2021/04/10 07:47:35;;;;;;;3.93;1.80;;;13.90;82.70;;;;;;5090869;28;20707;-59
2021/04/10 07:50:22;;;;;;;1.83;1.30;;;13.90;83.20;;;;;;5090842;28;20220;-59
2021/04/10 07:52:49;;;;;;;3.17;1.70;;;13.80;83.30;;;;;;5091076;28;20228;-59
2021/04/10 07:55:35;;;;;;;2.80;1.40;;;14.00;83.30;;;;;;5090986;28;20634;-60
2021/04/10 07:58:26;;;;;;;3.30;1.60;;;14.20;83.30;;;;;;5090982;28;20250;-59
2021/04/10 08:00:55;;;;;;;3.27;1.20;;;14.30;82.30;;;;;;5091329;28;20207;-61
2021/04/10 08:03:22;;;;;;;1.57;1.10;;;14.30;82.00;;;;;;5087741;28;20277;-62
2021/04/10 08:05:49;;;;;;;2.33;1.30;;;14.40;82.30;;;;;;5090595;28;20231;-60
2021/04/10 08:08:18;;;;;;;3.90;1.53;;;14.50;82.20;;;;;;5090683;28;20569;-59
2021/04/10 08:10:45;;;;;;;3.37;1.30;;;14.60;82.00;;;;;;5090552;28;20271;-58
2021/04/10 08:13:12;;;;;;;2.17;1.57;;;14.60;81.60;;;;;;5090083;28;20354;-57
2021/04/10 08:15:39;;;;;;;2.40;1.50;;;14.40;80.80;;;;;;5090624;28;20196;-59
2021/04/10 08:18:23;;;;;;;2.33;1.30;;;14.50;81.40;;;;;;5090894;28;20208;-59
2021/04/10 08:20:50;;;;;;;2.37;1.80;;;14.60;81.40;;;;;;5090689;28;20254;-59
2021/04/10 08:23:19;;;;;;;4.97;2.13;;;14.50;80.90;;;;;;5090285;28;20626;-58
2021/04/10 08:25:45;;;;;;;3.87;1.50;;;14.40;82.00;;;;;;5091507;28;20284;-59
2021/04/10 08:28:12;;;;;;;3.27;1.57;;;14.50;82.00;;;;;;5094385;28;20204;-58
2021/04/10 08:30:38;;;;;;;6.40;1.57;;;14.40;80.80;;;;;;5094637;28;20204;-59
2021/04/10 08:33:04;;;;;;;3.47;1.70;;;14.50;80.90;;;;;;5094485;28;20289;-59
2021/04/10 08:35:31;;;;;;;5.13;1.60;;;14.60;81.00;;;;;;5093880;28;20668;-60
2021/04/10 08:37:59;;;;;;;4.53;1.50;;;14.60;81.00;;;;;;5094111;28;20208;-60
2021/04/10 08:40:27;;;;;;;6.53;1.60;;;14.70;80.90;;;;;;5094258;28;20204;-60
2021/04/10 08:42:56;;;;;;;3.23;1.40;;;14.70;81.10;;;;;;5092471;28;20231;-60
2021/04/10 08:45:24;;;;;;;2.33;1.30;;;14.70;81.10;;;;;;5092417;28;20208;-61
2021/04/10 08:47:52;;;;;;;2.10;1.33;;;14.60;81.00;;;;;;5092049;28;20208;-61
2021/04/10 08:50:18;;;;;;;5.13;1.57;;;14.50;80.90;;;;;;5092464;28;20215;-61
2021/04/10 08:52:46;;;;;;;2.47;1.10;;;14.40;81.40;;;;;;5092257;28;20708;-61
2021/04/10 08:55:14;;;;;;;2.83;1.40;;;14.40;82.20;;;;;;5092543;28;20644;-61
2021/04/10 08:57:42;;;;;;;3.30;1.30;;;14.50;82.50;;;;;;5093187;28;20196;-61
2021/04/10 09:00:21;;;;;;;1.73;1.10;;;14.60;82.30;;;;;;5093835;28;20204;-61
2021/04/10 09:02:52;;;;;;;2.00;1.20;;;14.60;83.10;;;;;;5094021;28;20235;-62
2021/04/10 09:05:19;;;;;;;2.00;1.40;;;14.80;82.60;;;;;;5093937;28;20211;-61
2021/04/10 09:08:05;;;;;;;3.67;1.83;;;14.80;83.80;;;;;;5093745;28;20208;-61
2021/04/10 09:10:51;;;;;;;3.73;1.97;;;14.90;84.00;;;;;;5093813;28;20298;-61
2021/04/10 09:13:48;;;;;;;3.83;1.33;;;15.10;84.20;;;;;;5093647;28;20231;-61
2021/04/10 09:16:47;;;;;;;2.27;1.40;;;15.30;84.40;;;;;;5093561;28;20204;-63
2021/04/10 09:19:16;;;;;;;3.10;1.47;;;15.40;84.50;;;;;;5076331;28;20224;-59
2021/04/10 09:21:45;;;;;;;5.03;1.60;;;15.60;84.70;;;;;;5093710;28;20310;-65
2021/04/10 09:24:23;;;;;;;1.83;1.20;;;15.70;84.30;;;;;;5093805;28;20646;-62
2021/04/10 09:27:02;;;;;;;4.70;1.40;;;15.70;84.70;;;;;;5093587;28;20246;-61
2021/04/10 09:29:30;;;;;;;4.13;1.90;;;15.90;84.50;;;;;;5093393;28;20203;-61
2021/04/10 09:31:58;;;;;;;5.57;3.23;;;16.00;83.60;;;;;;5093212;28;20220;-60
2021/04/10 09:34:51;;;;;;;4.33;2.40;;;16.10;83.80;;;;;;5093085;28;20212;-58
2021/04/10 09:38:00;;;;;;;4.00;1.37;;;16.10;83.90;;;;;;5092199;28;20684;-60
2021/04/10 09:40:49;;;;;;;3.87;1.43;;;16.30;83.90;;;;;;5093387;28;20214;-60
2021/04/10 09:43:19;;;;;;;3.20;2.10;;;16.40;82.40;;;;;;5092916;28;20645;-59
2021/04/10 09:45:46;;;;;;;2.70;1.33;;;16.50;81.90;;;;;;5092750;28;20323;-60
2021/04/10 09:48:32;;;;;;;5.80;2.70;;;16.50;80.80;;;;;;5093355;28;20231;-60
2021/04/10 09:51:15;;;;;;;2.50;1.60;;;16.30;81.20;;;;;;5092892;28;20246;-59
2021/04/10 09:53:49;;;;;;;2.00;1.43;;;16.30;81.60;;;;;;5092940;28;20228;-59
2021/04/10 09:56:17;;;;;;;1.60;1.40;;;16.30;82.10;;;;;;5092904;28;20207;-58
2021/04/10 09:58:46;;;;;;;3.80;1.63;;;16.30;80.60;;;;;;5092771;28;20204;-60
2021/04/10 10:01:16;;;;;;;4.27;1.80;;;16.20;80.70;;;;;;5092556;28;20714;-61
2021/04/10 10:03:42;;;;;;;3.17;1.93;;;16.20;81.10;;;;;;5093049;28;20290;-58
2021/04/10 10:06:30;;;;;;;4.17;1.63;;;16.30;81.00;;;;;;5092789;28;20234;-60
2021/04/10 10:08:56;;;;;;;1.80;1.50;;;16.40;80.30;;;;;;5092703;28;20214;-60
2021/04/10 10:11:24;;;;;;;3.47;1.70;;;16.60;79.60;;;;;;5092801;28;20200;-59
2021/04/10 10:13:50;;;;;;;2.43;1.90;;;17.00;79.10;;;;;;5092230;28;20204;-60
2021/04/10 10:16:30;;;;;;;4.43;1.60;;;17.30;77.60;;;;;;5092688;28;20201;-60
2021/04/10 10:18:57;;;;;;;3.47;1.40;;;17.50;76.50;;;;;;5092221;28;20824;-60
2021/04/10 10:21:24;;;;;;;2.63;1.57;;;17.70;75.60;;;;;;5092504;28;20204;-60
2021/04/10 10:23:53;;;;;;;5.35;1.33;;;17.80;75.60;;;;;;5092310;28;20210;-58
2021/04/10 10:26:21;;;;;;;2.27;1.60;;;18.00;75.70;;;;;;5092179;28;20232;-60
2021/04/10 10:28:49;;;;;;;3.70;1.50;;;18.10;74.90;;;;;;5092203;28;20204;-58
2021/04/10 10:31:20;;;;;;;4.77;1.37;;;18.00;75.20;;;;;;5092123;28;20219;-59
2021/04/10 10:33:47;;;;;;;3.63;1.83;;;18.10;75.20;;;;;;5091925;28;20207;-59
2021/04/10 10:36:14;;;;;;;3.80;2.37;;;18.20;74.40;;;;;;5092059;28;20223;-59
2021/04/10 10:38:43;;;;;;;3.20;1.60;;;18.20;73.30;;;;;;5091595;28;20208;-58
2021/04/10 10:41:11;;;;;;;3.95;1.70;;;18.20;73.40;;;;;;5091793;28;20207;-59
2021/04/10 10:43:38;;;;;;;3.27;1.67;;;18.40;73.10;;;;;;5091768;28;20671;-58
2021/04/10 10:46:07;;;;;;;1.70;1.37;;;18.60;72.50;;;;;;5092094;28;20622;-59
2021/04/10 10:48:34;;;;;;;8.75;5.32;;;18.60;70.80;;;;;;5091409;28;20200;-59
2021/04/10 10:51:07;;;;;;;4.75;3.13;;;18.70;72.20;;;;;;5091497;28;20244;-60
2021/04/10 10:53:34;;;;;;;6.57;2.78;;;18.70;71.20;;;;;;5091391;28;20220;-59
2021/04/10 10:56:07;;;;;;;2.50;1.77;;;18.70;71.00;;;;;;5090710;28;20265;-62
2021/04/10 10:58:36;;;;;;;2.45;1.60;;;18.70;70.00;;;;;;5091139;28;20590;-61
2021/04/10 11:01:04;;;;;;;2.78;1.88;;;18.70;69.90;;;;;;5091472;28;20204;-63
2021/04/10 11:03:31;;;;;;;4.05;1.80;;;18.60;69.90;;;;;;5091290;28;20236;-62
2021/04/10 11:05:58;;;;;;;3.08;1.60;;;18.70;70.00;;;;;;5091314;28;20361;-62
2021/04/10 11:08:25;;;;;;;3.17;1.70;;;18.80;69.80;;;;;;5091680;28;20204;-62
2021/04/10 11:10:53;;;;;;;5.00;1.55;;;18.80;69.80;;;;;;5091622;28;20200;-60
2021/04/10 11:13:20;;;;;;;3.58;1.50;;;19.00;68.90;;;;;;5091446;28;20241;-61
2021/04/10 11:15:47;;;;;;;3.47;1.77;;;19.20;69.60;;;;;;5091511;28;20208;-63
2021/04/10 11:18:28;;;;;;;3.53;1.73;;;19.40;69.20;;;;;;5091444;28;20204;-63
2021/04/10 11:21:26;;;;;;;6.15;1.95;;;19.50;68.80;;;;;;5091566;28;20200;-60
2021/04/10 11:24:12;;;;;;;3.85;1.70;;;19.40;68.00;;;;;;5091497;28;20261;-61
2021/04/10 11:26:56;;;;;;;1.80;1.60;;;19.40;67.70;;;;;;5091738;28;20699;-61
2021/04/10 11:29:30;;;;;;;4.25;2.20;;;19.20;69.40;;;;;;5091760;28;20207;-61
2021/04/10 11:32:14;;;;;;;2.35;1.40;;;18.80;68.60;;;;;;5091955;28;20231;-62
2021/04/10 11:34:43;;;;;;;6.65;2.90;;;19.00;68.50;;;;;;5091569;28;20257;-62
2021/04/10 11:37:11;;;;;;;2.75;1.80;;;19.10;68.50;;;;;;5091195;28;20597;-62
2021/04/10 11:39:56;;;;;;;3.10;1.55;;;18.90;68.30;;;;;;5091285;28;20212;-62
2021/04/10 11:42:28;;;;;;;2.63;1.20;;;19.10;67.10;;;;;;5091793;28;20224;-60
2021/04/10 11:44:56;;;;;;;4.03;2.22;;;19.40;66.60;;;;;;5090963;28;20200;-62
2021/04/10 11:47:24;;;;;;;2.60;1.45;;;19.80;66.30;;;;;;5091416;28;20220;-61
2021/04/10 11:49:50;;;;;;;2.70;1.10;;;20.00;63.30;;;;;;5091527;28;20630;-61
2021/04/10 11:52:18;;;;;;;2.25;0.80;;;20.20;63.00;;;;;;5091075;28;20250;-62
2021/04/10 11:54:44;;;;;;;1.90;0.95;;;20.40;61.30;;;;;;5091648;28;20236;-61
2021/04/10 11:57:30;;;;;;;2.95;1.05;;;20.60;60.50;;;;;;5092080;28;20695;-61
2021/04/10 12:00:18;;;;;;;1.83;1.10;;;20.60;59.90;;;;;;5091559;28;20291;-61
2021/04/10 12:02:46;;;;;;;2.60;1.58;;;20.70;59.50;;;;;;5092691;28;20235;-61
2021/04/10 12:05:24;;;;;;;4.18;2.88;;;20.70;59.50;;;;;;5095998;28;20556;-61
2021/04/10 12:08:18;;;;;;;3.47;1.40;;;21.00;59.00;;;;;;5095578;28;20322;-60
2021/04/10 12:10:49;;;;;;;3.28;1.70;;;21.10;58.30;;;;;;5093826;28;20493;-61
2021/04/10 12:13:17;;;;;;;1.42;0.95;;;21.30;58.10;;;;;;5094952;28;20224;-61
2021/04/10 12:15:47;;;;;;;1.42;1.00;;;21.50;57.50;;;;;;5094574;28;20212;-61
2021/04/10 12:18:13;;;;;;;2.35;1.00;;;21.70;57.20;;;;;;5094953;28;20342;-60
2021/04/10 12:20:40;;;;;;;2.60;1.60;;;21.80;56.70;;;;;;5094696;28;20695;-62
2021/04/10 12:23:07;;;;;;;3.17;1.50;;;21.80;56.70;;;;;;5094692;28;20224;-63
2021/04/10 12:25:33;;;;;;;2.47;0.85;;;21.80;56.60;;;;;;5094641;28;20204;-63
2021/04/10 12:28:00;;;;;;;7.07;1.10;;;21.80;56.40;;;;;;5094354;28;20604;-62
2021/04/10 12:30:28;;;;;;;3.50;1.88;;;21.80;55.90;;;;;;5095035;28;20211;-62
2021/04/10 12:32:54;;;;;;;4.20;1.30;;;21.50;56.30;;;;;;5094925;28;20730;-62
2021/04/10 12:35:20;;;;;;;3.17;1.33;;;21.40;56.40;;;;;;5094709;28;20212;-62
2021/04/10 12:37:47;;;;;;;1.13;0.93;;;21.10;57.20;;;;;;5095068;28;20205;-62
2021/04/10 12:40:14;;;;;;;2.55;0.93;;;21.00;57.50;;;;;;5094573;28;20676;-62
2021/04/10 12:42:40;;;;;;;2.83;1.13;;;21.00;57.10;;;;;;5094369;28;20228;-63
2021/04/10 12:45:08;;;;;;;1.67;1.10;;;21.00;56.90;;;;;;5094177;28;20617;-62
2021/04/10 12:47:37;;;;;;;9.48;4.22;;;21.00;56.90;;;;;;5094066;28;20285;-62
2021/04/10 12:50:04;;;;;;;3.42;1.17;;;20.50;57.50;;;;;;5094303;28;20200;-63
2021/04/10 12:52:31;;;;;;;1.85;0.95;;;20.40;57.90;;;;;;5094755;28;20231;-62
2021/04/10 12:54:57;;;;;;;2.40;0.90;;;20.50;58.20;;;;;;5094678;28;20392;-62
2021/04/10 12:57:23;;;;;;;2.08;1.30;;;20.60;57.70;;;;;;5094175;28;20241;-60
2021/04/10 12:59:49;;;;;;;3.80;1.30;;;20.60;57.90;;;;;;5094242;28;20231;-62